Time;durP1;ratioP1;P1;durP2;ratioP2;P2;SDS_P1;SDS_P2;PMS_P1;PMS_P2;Temp;Humidity;BMP_temperature;BMP_pressure;BME280_temperature;BME280_humidity;BME280_pressure;Samples;Min_cycle;Max_cycle;Signal;HPM_P1;HPM_P2
2023/03/15 00:01:49;;;;;;;;;;;;;;;30.31;19.53;100089.72;5056581;28;1980;-28
2023/03/15 00:04:15;;;;;;;;;;;;;;;30.66;19.38;100081.03;5056689;28;1107;-28
2023/03/15 00:06:40;;;;;;;;;;;;;;;30.77;19.19;100081.34;5056759;28;1287;-28
2023/03/15 00:09:06;;;;;;;;;;;;;;;30.81;19.28;100076.34;5056887;28;982;-30
2023/03/15 00:11:32;;;;;;;;;;;;;;;31.11;18.98;100078.31;5056627;28;1113;-30
2023/03/15 00:13:57;;;;;;;;;;;;;;;31.09;18.84;100069.56;5056578;28;1026;-26
2023/03/15 00:16:25;;;;;;;;;;;;;;;30.57;19.09;100059.81;5056567;28;1181;-27
2023/03/15 00:18:54;;;;;;;;;;;;;;;29.25;20.82;100064.59;5056986;28;1110;-27
2023/03/15 00:21:20;;;;;;;;;;;;;;;30.54;19.62;100051.09;5056907;28;1922;-29
2023/03/15 00:23:45;;;;;;;;;;;;;;;31.00;19.14;100052.72;5056642;28;1043;-29
2023/03/15 00:26:11;;;;;;;;;;;;;;;31.31;18.71;100056.34;5056373;28;1075;-33
2023/03/15 00:28:36;;;;;;;;;;;;;;;31.37;18.56;100052.69;5056392;28;1106;-29
2023/03/15 00:31:22;;;;;;;;;;;;;;;30.36;19.43;100041.03;5056408;28;1070;-31
2023/03/15 00:33:52;;;;;;;;;;;;;;;30.39;19.83;100043.31;5055385;28;1060;-30
2023/03/15 00:36:23;;;;;;;;;;;;;;;30.69;19.45;100047.19;5088529;28;1113;-29
2023/03/15 00:38:50;;;;;;;;;;;;;;;30.91;19.01;100039.44;5088146;28;1392;-29
2023/03/15 00:41:17;;;;;;;;;;;;;;;31.11;19.03;100038.41;5055234;28;1917;-28
2023/03/15 00:43:42;;;;;;;;;;;;;;;31.18;18.98;100030.16;5056314;28;1106;-29
2023/03/15 00:46:08;;;;;;;;;;;;;;;30.24;19.63;100023.81;5055975;28;1036;-28
2023/03/15 00:48:34;;;;;;;;;;;;;;;29.23;20.92;100020.63;5055576;28;1014;-29
2023/03/15 00:51:06;;;;;;;;;;;;;;;30.71;19.42;100014.38;5056090;28;1083;-28
2023/03/15 00:53:31;;;;;;;;;;;;;;;31.14;18.86;100016.22;5071578;28;1198;-28
2023/03/15 00:55:57;;;;;;;;;;;;;;;31.31;18.75;100004.72;5056189;28;1082;-33
2023/03/15 00:58:22;;;;;;;;;;;;;;;30.29;19.31;99996.84;5054602;28;1133;-27
2023/03/15 01:00:48;;;;;;;;;;;;;;;29.81;20.44;99990.97;5054269;28;1977;-28
2023/03/15 01:03:14;;;;;;;;;;;;;;;30.56;19.53;99985.72;5056225;28;1965;-27
2023/03/15 01:05:40;;;;;;;;;;;;;;;30.79;19.48;99976.06;5056584;28;1035;-26
2023/03/15 01:08:05;;;;;;;;;;;;;;;30.99;19.16;99973.16;5055860;28;1054;-29
2023/03/15 01:10:33;;;;;;;;;;;;;;;31.23;18.82;99972.44;5054776;28;1206;-29
2023/03/15 01:13:00;;;;;;;;;;;;;;;31.21;18.83;99960.97;5055990;28;1035;-27
2023/03/15 01:15:26;;;;;;;;;;;;;;;30.19;19.88;99959.34;5055619;28;1149;-30
2023/03/15 01:17:51;;;;;;;;;;;;;;;29.50;21.11;99958.19;5054929;28;1292;-29
2023/03/15 01:20:17;;;;;;;;;;;;;;;30.83;19.40;99966.44;5055665;28;1073;-33
2023/03/15 01:22:42;;;;;;;;;;;;;;;31.08;19.07;99954.63;5054436;28;1902;-35
2023/03/15 01:25:08;;;;;;;;;;;;;;;31.30;19.07;99962.28;5056016;28;1118;-28
2023/03/15 01:27:34;;;;;;;;;;;;;;;30.21;19.73;99956.44;5051006;28;1122;-29
2023/03/15 01:29:59;;;;;;;;;;;;;;;29.70;20.51;99960.78;5069013;28;1135;-29
2023/03/15 01:32:25;;;;;;;;;;;;;;;30.64;19.74;99963.72;5054711;28;1147;-29
2023/03/15 01:34:51;;;;;;;;;;;;;;;30.74;19.59;99959.63;5056066;28;1106;-27
2023/03/15 01:37:16;;;;;;;;;;;;;;;30.95;19.31;99952.13;5054746;28;1193;-28
2023/03/15 01:39:43;;;;;;;;;;;;;;;31.09;19.13;99950.03;5053801;28;1202;-28
2023/03/15 01:42:09;;;;;;;;;;;;;;;31.16;18.91;99946.16;5054477;28;1890;-31
2023/03/15 01:44:48;;;;;;;;;;;;;;;29.89;20.32;99941.06;5087767;28;1317;-29
2023/03/15 01:47:14;;;;;;;;;;;;;;;30.04;20.49;99944.25;5055774;28;1233;-30
2023/03/15 01:49:39;;;;;;;;;;;;;;;30.89;19.41;99945.69;5054148;28;1241;-27
2023/03/15 01:52:11;;;;;;;;;;;;;;;31.10;19.20;99946.25;5034187;28;1154;-30
2023/03/15 01:55:00;;;;;;;;;;;;;;;31.34;18.95;99952.63;5044761;28;1165;-31
2023/03/15 01:57:30;;;;;;;;;;;;;;;30.47;19.67;99947.19;5054177;28;1124;-28
2023/03/15 02:00:00;;;;;;;;;;;;;;;30.13;20.19;99936.66;5087336;28;1400;-28
2023/03/15 02:02:26;;;;;;;;;;;;;;;30.60;19.86;99935.34;5057986;28;1898;-29
2023/03/15 02:04:54;;;;;;;;;;;;;;;30.78;19.75;99931.78;5083320;28;1259;-31
2023/03/15 02:07:19;;;;;;;;;;;;;;;30.86;19.43;99943.44;5041183;28;1230;-30
2023/03/15 02:10:04;;;;;;;;;;;;;;;31.09;19.29;99937.28;5091389;28;1326;-29
2023/03/15 02:12:33;;;;;;;;;;;;;;;31.14;19.41;99937.44;5091432;28;1139;-27
2023/03/15 02:14:59;;;;;;;;;;;;;;;30.39;19.83;99929.34;5056038;28;1086;-28
2023/03/15 02:17:28;;;;;;;;;;;;;;;29.10;21.50;99926.75;5074458;28;1228;-33
2023/03/15 02:19:56;;;;;;;;;;;;;;;30.64;19.97;99928.44;5039581;28;1294;-27
2023/03/15 02:22:24;;;;;;;;;;;;;;;31.01;19.42;99933.00;5037452;28;1975;-28
2023/03/15 02:24:50;;;;;;;;;;;;;;;31.24;19.21;99931.44;5052781;28;1361;-27
2023/03/15 02:27:21;;;;;;;;;;;;;;;31.40;19.11;99931.84;5058876;28;1121;-30
2023/03/15 02:29:47;;;;;;;;;;;;;;;30.35;19.89;99930.00;5057161;28;1050;-29
2023/03/15 02:32:12;;;;;;;;;;;;;;;30.22;20.51;99933.69;5058641;28;1202;-28
2023/03/15 02:34:38;;;;;;;;;;;;;;;30.60;19.76;99934.53;5057569;28;1055;-29
2023/03/15 02:37:03;;;;;;;;;;;;;;;30.66;19.90;99923.59;5058968;28;1062;-29
2023/03/15 02:39:29;;;;;;;;;;;;;;;31.01;19.42;99929.47;5059039;28;1042;-28
2023/03/15 02:41:55;;;;;;;;;;;;;;;31.08;19.48;99924.75;5067241;28;1914;-27
2023/03/15 02:44:31;;;;;;;;;;;;;;;31.17;19.36;99930.69;5058392;28;1127;-30
2023/03/15 02:46:58;;;;;;;;;;;;;;;29.82;20.60;99925.69;5057234;28;1121;-29
2023/03/15 02:49:25;;;;;;;;;;;;;;;29.82;20.83;99922.13;5090895;28;1206;-28
2023/03/15 02:51:50;;;;;;;;;;;;;;;30.79;19.76;99922.63;5036763;28;1152;-29
2023/03/15 02:54:16;;;;;;;;;;;;;;;31.02;19.17;99929.22;5056785;28;1024;-27
2023/03/15 02:56:41;;;;;;;;;;;;;;;31.30;18.79;99929.66;5056991;28;1110;-29
2023/03/15 02:59:07;;;;;;;;;;;;;;;31.12;18.70;99930.56;5056763;28;1307;-27
2023/03/15 03:01:35;;;;;;;;;;;;;;;31.26;18.80;99926.59;5057341;28;1981;-33
2023/03/15 03:04:01;;;;;;;;;;;;;;;29.78;19.89;99924.44;5056792;28;1373;-31
2023/03/15 03:06:27;;;;;;;;;;;;;;;29.48;20.44;99924.25;5056991;28;1305;-29
2023/03/15 03:08:53;;;;;;;;;;;;;;;30.72;19.02;99927.28;5058286;28;1062;-33
2023/03/15 03:11:19;;;;;;;;;;;;;;;30.95;18.79;99928.47;5056488;28;1177;-31
2023/03/15 03:13:44;;;;;;;;;;;;;;;31.06;18.54;99935.03;5056173;28;1431;-34
2023/03/15 03:16:10;;;;;;;;;;;;;;;31.01;18.60;99930.28;5056668;28;1208;-33
2023/03/15 03:18:36;;;;;;;;;;;;;;;30.94;18.71;99929.56;5056491;28;1267;-28
2023/03/15 03:21:03;;;;;;;;;;;;;;;29.98;19.45;99928.84;5056785;28;1203;-29
2023/03/15 03:23:29;;;;;;;;;;;;;;;28.58;20.83;99927.56;5053026;28;1976;-29
2023/03/15 03:25:56;;;;;;;;;;;;;;;30.25;19.45;99923.22;5049926;28;1143;-28
2023/03/15 03:28:23;;;;;;;;;;;;;;;30.94;18.73;99931.44;5056256;28;1092;-29
2023/03/15 03:30:48;;;;;;;;;;;;;;;31.07;18.33;99930.41;5090370;28;1249;-28
2023/03/15 03:33:14;;;;;;;;;;;;;;;31.24;18.29;99926.00;5089605;28;1351;-29
2023/03/15 03:35:40;;;;;;;;;;;;;;;31.01;18.49;99921.31;5056147;28;1102;-31
2023/03/15 03:38:07;;;;;;;;;;;;;;;31.15;18.30;99922.78;5090187;28;1349;-32
2023/03/15 03:40:37;;;;;;;;;;;;;;;29.62;19.61;99912.28;5056195;28;1202;-29
2023/03/15 03:43:04;;;;;;;;;;;;;;;30.04;19.49;99921.72;5056308;28;1969;-29
2023/03/15 03:45:29;;;;;;;;;;;;;;;30.78;18.49;99923.66;5056404;28;1161;-33
2023/03/15 03:47:57;;;;;;;;;;;;;;;30.94;18.33;99921.41;5056137;28;1201;-32
2023/03/15 03:50:22;;;;;;;;;;;;;;;30.97;18.18;99920.09;5056279;28;1164;-28
2023/03/15 03:52:48;;;;;;;;;;;;;;;30.95;18.22;99924.97;5055822;28;1024;-31
2023/03/15 03:55:24;;;;;;;;;;;;;;;30.97;18.20;99925.53;5055733;28;1228;-33
2023/03/15 03:57:50;;;;;;;;;;;;;;;29.59;19.39;99915.44;5056069;28;1501;-30
2023/03/15 04:00:28;;;;;;;;;;;;;;;28.77;20.49;99925.00;5055970;28;1193;-31
2023/03/15 04:02:54;;;;;;;;;;;;;;;30.57;18.88;99932.25;5057323;28;1967;-32
2023/03/15 04:05:19;;;;;;;;;;;;;;;30.95;18.36;99927.69;5054977;28;1534;-31
2023/03/15 04:07:45;;;;;;;;;;;;;;;31.14;18.04;99931.16;5056066;28;1113;-33
2023/03/15 04:10:13;;;;;;;;;;;;;;;31.21;18.02;99921.03;5055695;28;1138;-30
2023/03/15 04:12:42;;;;;;;;;;;;;;;31.24;18.09;99920.56;5055522;28;1198;-33
2023/03/15 04:15:08;;;;;;;;;;;;;;;30.25;18.78;99911.53;5055273;28;1384;-29
2023/03/15 04:17:34;;;;;;;;;;;;;;;29.68;19.42;99902.41;5056759;28;905;-29
2023/03/15 04:20:05;;;;;;;;;;;;;;;30.31;19.27;99911.44;5042588;28;1158;-31
2023/03/15 04:22:34;;;;;;;;;;;;;;;30.82;18.61;99904.22;5088769;28;1897;-27
2023/03/15 04:25:18;;;;;;;;;;;;;;;31.18;18.41;99901.66;5055101;28;2051;-31
2023/03/15 04:28:16;;;;;;;;;;;;;;;31.10;18.21;99897.34;5050531;28;1202;-27
2023/03/15 04:30:50;;;;;;;;;;;;;;;30.99;18.47;99913.41;5055341;28;1331;-33
2023/03/15 04:33:50;;;;;;;;;;;;;;;28.95;20.51;99914.31;4962276;28;1217;-26
2023/03/15 04:36:18;;;;;;;;;;;;;;;28.52;21.08;99904.91;5039194;28;1006;-30
2023/03/15 04:39:06;;;;;;;;;;;;;;;29.80;19.42;99907.97;5045533;28;1174;-26
2023/03/15 04:41:54;;;;;;;;;;;;;;;27.14;21.02;99908.84;5049168;28;1902;-28
2023/03/15 04:44:38;;;;;;;;;;;;;;;28.20;20.09;99907.44;5056168;28;1167;-28
2023/03/15 04:47:23;;;;;;;;;;;;;;;29.73;18.48;99905.31;5056267;28;1066;-30
2023/03/15 04:50:20;;;;;;;;;;;;;;;30.12;18.33;99907.03;5044323;28;1526;-30
2023/03/15 04:53:09;;;;;;;;;;;;;;;30.39;18.57;99910.34;5057224;28;1484;-29
2023/03/15 04:55:54;;;;;;;;;;;;;;;30.52;18.84;99914.78;5054535;28;1321;-30
2023/03/15 04:58:32;;;;;;;;;;;;;;;30.92;18.39;99918.91;5055181;28;1320;-29
2023/03/15 05:01:00;;;;;;;;;;;;;;;31.27;17.80;99924.72;5043378;28;1679;-30
2023/03/15 05:03:47;;;;;;;;;;;;;;;27.94;20.16;99912.69;5052307;28;1914;-28
2023/03/15 05:06:45;;;;;;;;;;;;;;;29.68;19.26;99910.56;5054695;28;1112;-32
2023/03/15 05:09:36;;;;;;;;;;;;;;;30.72;18.21;99912.88;5055795;28;996;-28
2023/03/15 05:12:20;;;;;;;;;;;;;;;31.06;17.86;99905.16;5042037;28;1313;-28
2023/03/15 05:15:11;;;;;;;;;;;;;;;31.08;17.84;99896.78;5054753;28;1113;-31
2023/03/15 05:17:57;;;;;;;;;;;;;;;31.20;17.71;99889.47;5054030;28;1210;-29
2023/03/15 05:20:31;;;;;;;;;;;;;;;28.82;19.46;99876.47;5056149;28;1015;-29
2023/03/15 05:23:15;;;;;;;;;;;;;;;27.41;21.27;99879.19;5047817;28;1965;-32
2023/03/15 05:25:59;;;;;;;;;;;;;;;30.80;17.42;99877.31;5054525;28;1257;-38
2023/03/15 05:28:44;;;;;;;;;;;;;;;31.13;17.13;99876.00;5054824;28;1007;-31
2023/03/15 05:31:35;;;;;;;;;;;;;;;31.32;17.12;99886.81;5054834;28;974;-28
2023/03/15 05:34:07;;;;;;;;;;;;;;;27.83;19.65;99880.88;5056026;28;1042;-29
2023/03/15 05:36:54;;;;;;;;;;;;;;;26.13;21.48;99879.47;5051547;28;1441;-33
2023/03/15 05:39:51;;;;;;;;;;;;;;;27.34;20.02;99872.97;5059116;28;1106;-35
2023/03/15 05:42:37;;;;;;;;;;;;;;;27.33;19.58;99868.56;5051946;28;1981;-32
2023/03/15 05:45:21;;;;;;;;;;;;;;;27.74;18.95;99856.75;5059751;28;1092;-32
2023/03/15 05:48:01;;;;;;;;;;;;;;;27.81;18.79;99850.56;5058269;28;1344;-32
2023/03/15 05:50:29;;;;;;;;;;;;;;;27.58;19.08;99855.31;5059719;28;1131;-29
2023/03/15 05:53:14;;;;;;;;;;;;;;;27.74;18.58;99850.56;5055465;28;1150;-36
2023/03/15 05:56:09;;;;;;;;;;;;;;;27.60;19.10;99853.22;5027409;28;1473;-30
2023/03/15 05:58:41;;;;;;;;;;;;;;;27.53;19.00;99856.97;5059809;28;1234;-30
2023/03/15 06:01:32;;;;;;;;;;;;;;;27.23;19.07;99855.47;5051355;28;1963;-32
2023/03/15 06:04:30;;;;;;;;;;;;;;;27.55;18.74;99842.22;5054715;28;1129;-32
2023/03/15 06:06:57;;;;;;;;;;;;;;;27.49;18.72;99846.56;5075612;28;1254;-32
2023/03/15 06:09:23;;;;;;;;;;;;;;;27.60;19.04;99831.63;5081186;28;1342;-30
2023/03/15 06:11:49;;;;;;;;;;;;;;;27.36;18.95;99830.38;5091547;28;1257;-32
2023/03/15 06:14:15;;;;;;;;;;;;;;;27.42;19.35;99826.00;5057991;28;1403;-32
2023/03/15 06:16:47;;;;;;;;;;;;;;;27.14;19.08;99825.16;5057728;28;1209;-35
2023/03/15 06:19:13;;;;;;;;;;;;;;;26.26;19.97;99822.13;5058300;28;1127;-31
2023/03/15 06:21:38;;;;;;;;;;;;;;;26.37;19.98;99818.91;5057759;28;1969;-30
2023/03/15 06:24:10;;;;;;;;;;;;;;;26.96;19.76;99818.44;5057725;28;1144;-32
2023/03/15 06:26:36;;;;;;;;;;;;;;;28.60;18.06;99817.25;5057737;28;1242;-33
2023/03/15 06:29:03;;;;;;;;;;;;;;;29.26;17.54;99808.13;5074389;28;1159;-33
2023/03/15 06:31:28;;;;;;;;;;;;;;;29.58;17.07;99806.16;5047088;28;1218;-32
2023/03/15 06:34:00;;;;;;;;;;;;;;;29.50;17.03;99800.19;5070997;28;1194;-35
2023/03/15 06:36:26;;;;;;;;;;;;;;;30.01;16.46;99789.31;5054120;28;1411;-31
2023/03/15 06:38:53;;;;;;;;;;;;;;;29.78;16.72;99791.63;5061355;28;1226;-31
2023/03/15 06:41:20;;;;;;;;;;;;;;;29.94;16.57;99792.94;5044623;28;1120;-29
2023/03/15 06:43:47;;;;;;;;;;;;;;;30.17;16.32;99796.84;5057036;28;1979;-30
2023/03/15 06:46:13;;;;;;;;;;;;;;;30.02;16.54;99805.34;5056806;28;1188;-35
2023/03/15 06:48:39;;;;;;;;;;;;;;;30.39;16.30;99798.25;5057384;28;1244;-37
2023/03/15 06:51:06;;;;;;;;;;;;;;;31.06;15.94;99799.22;5058584;28;1225;-38
2023/03/15 06:53:31;;;;;;;;;;;;;;;31.52;15.95;99794.09;5057107;28;1169;-36
2023/03/15 06:55:57;;;;;;;;;;;;;;;31.72;15.82;99792.06;5056870;28;1186;-33
2023/03/15 06:58:23;;;;;;;;;;;;;;;31.61;16.12;99793.75;5056785;28;1171;-35
2023/03/15 07:00:48;;;;;;;;;;;;;;;32.03;15.83;99784.63;5038400;28;1230;-34
2023/03/15 07:03:14;;;;;;;;;;;;;;;30.29;17.78;99780.66;5049842;28;1977;-34
2023/03/15 07:05:39;;;;;;;;;;;;;;;28.25;20.25;99791.38;5048627;28;1121;-33
2023/03/15 07:08:05;;;;;;;;;;;;;;;30.70;17.83;99795.56;5057927;28;1149;-37
2023/03/15 07:10:30;;;;;;;;;;;;;;;31.60;17.01;99795.63;5053046;28;1074;-31
2023/03/15 07:12:56;;;;;;;;;;;;;;;31.69;16.92;99795.28;5050061;28;1102;-33
2023/03/15 07:15:22;;;;;;;;;;;;;;;31.63;17.21;99797.06;5058546;28;1098;-36
2023/03/15 07:17:47;;;;;;;;;;;;;;;31.60;16.97;99801.06;5051857;28;1269;-33
2023/03/15 07:20:13;;;;;;;;;;;;;;;29.53;19.13;99794.38;5058027;28;1094;-36
2023/03/15 07:22:38;;;;;;;;;;;;;;;28.27;20.67;99793.84;5058025;28;1913;-35
2023/03/15 07:25:06;;;;;;;;;;;;;;;30.70;18.18;99795.56;5057872;28;1245;-39
2023/03/15 07:27:31;;;;;;;;;;;;;;;30.95;18.12;99806.28;5057744;28;1292;-33
2023/03/15 07:29:57;;;;;;;;;;;;;;;31.13;17.63;99797.22;5057651;28;942;-34
2023/03/15 07:32:22;;;;;;;;;;;;;;;31.33;17.82;99800.69;5048063;28;1193;-30
2023/03/15 07:34:48;;;;;;;;;;;;;;;31.65;17.65;99801.19;5054382;28;1074;-31
2023/03/15 07:37:14;;;;;;;;;;;;;;;29.84;18.92;99814.31;5051236;28;1362;-32
2023/03/15 07:39:40;;;;;;;;;;;;;;;28.85;20.48;99816.50;5056409;28;1126;-33
2023/03/15 07:42:06;;;;;;;;;;;;;;;30.82;18.28;99817.34;5056278;28;1975;-32
2023/03/15 07:44:38;;;;;;;;;;;;;;;31.23;17.80;99817.56;5055488;28;1138;-35
2023/03/15 07:47:04;;;;;;;;;;;;;;;31.46;17.64;99824.13;5056570;28;1159;-32
2023/03/15 07:49:30;;;;;;;;;;;;;;;31.61;17.57;99818.22;5056971;28;1127;-31
2023/03/15 07:51:56;;;;;;;;;;;;;;;32.05;17.29;99811.59;5038412;28;1234;-34
2023/03/15 07:54:21;;;;;;;;;;;;;;;29.72;19.41;99811.50;5047074;28;840;-33
2023/03/15 07:56:47;;;;;;;;;;;;;;;28.39;21.33;99804.88;5040637;28;1241;-34
2023/03/15 07:59:12;;;;;;;;;;;;;;;31.06;18.46;99818.25;5037494;28;1309;-34
2023/03/15 08:01:38;;;;;;;;;;;;;;;31.68;17.67;99823.53;5044374;28;1917;-37
2023/03/15 08:04:04;;;;;;;;;;;;;;;31.79;17.66;99819.97;5045457;28;1344;-34
2023/03/15 08:06:30;;;;;;;;;;;;;;;32.00;17.22;99815.84;5044178;28;1321;-35
2023/03/15 08:08:56;;;;;;;;;;;;;;;29.21;19.99;99804.19;5043804;28;1391;-35
2023/03/15 08:11:21;;;;;;;;;;;;;;;29.66;20.22;99806.97;5045463;28;1364;-31
2023/03/15 08:13:47;;;;;;;;;;;;;;;31.13;18.03;99808.09;5044841;28;1330;-39
2023/03/15 08:16:12;;;;;;;;;;;;;;;31.71;17.84;99812.19;5056893;28;1289;-38
2023/03/15 08:18:38;;;;;;;;;;;;;;;31.87;17.54;99816.91;5056896;28;1034;-38
2023/03/15 08:21:03;;;;;;;;;;;;;;;31.88;17.34;99821.25;5056701;28;1051;-36
2023/03/15 08:23:29;;;;;;;;;;;;;;;31.95;17.52;99809.44;5056874;28;1906;-39
2023/03/15 08:25:55;;;;;;;;;;;;;;;29.33;20.21;99806.19;5045112;28;1147;-41
2023/03/15 08:28:20;;;;;;;;;;;;;;;28.50;21.45;99804.19;5039162;28;1387;-40
2023/03/15 08:30:46;;;;;;;;;;;;;;;30.96;18.36;99805.25;5047007;28;1316;-35
2023/03/15 08:33:11;;;;;;;;;;;;;;;31.60;17.97;99800.22;5050803;28;1284;-38
2023/03/15 08:35:37;;;;;;;;;;;;;;;31.85;17.34;99805.41;5046586;28;1356;-39
2023/03/15 08:38:02;;;;;;;;;;;;;;;30.01;19.38;99808.28;5051758;28;1352;-38
2023/03/15 08:40:29;;;;;;;;;;;;;;;28.30;21.36;99796.13;5044076;28;1386;-35
2023/03/15 08:42:55;;;;;;;;;;;;;;;30.05;19.87;99804.88;5046780;28;1910;-31
2023/03/15 08:45:22;;;;;;;;;;;;;;;31.03;18.79;99803.22;5054047;28;1130;-36
2023/03/15 08:47:48;;;;;;;;;;;;;;;31.42;18.41;99806.59;5038672;28;1360;-37
2023/03/15 08:50:14;;;;;;;;;;;;;;;31.62;18.25;99798.94;5050844;28;1059;-36
2023/03/15 08:52:39;;;;;;;;;;;;;;;31.63;17.93;99802.50;5049705;28;1071;-38
2023/03/15 08:55:05;;;;;;;;;;;;;;;28.94;20.87;99800.81;5046916;28;1047;-37
2023/03/15 08:57:32;;;;;;;;;;;;;;;29.39;20.63;99802.59;5045672;28;1138;-38
2023/03/15 08:59:58;;;;;;;;;;;;;;;31.00;19.02;99797.44;5050389;28;1363;-40
2023/03/15 09:02:23;;;;;;;;;;;;;;;31.45;18.50;99798.00;5051292;28;1902;-38
2023/03/15 09:04:49;;;;;;;;;;;;;;;31.57;18.33;99795.28;5047579;28;1375;-35
2023/03/15 09:07:14;;;;;;;;;;;;;;;29.07;20.83;99787.22;5050114;28;1385;-34
2023/03/15 09:09:40;;;;;;;;;;;;;;;28.07;22.13;99783.94;5053264;28;1035;-32
2023/03/15 09:12:06;;;;;;;;;;;;;;;30.34;19.89;99785.38;5052114;28;1338;-34
2023/03/15 09:14:31;;;;;;;;;;;;;;;30.94;19.15;99785.63;5045762;28;1055;-39
2023/03/15 09:16:57;;;;;;;;;;;;;;;31.28;18.83;99777.75;5055344;28;1022;-37
2023/03/15 09:19:22;;;;;;;;;;;;;;;31.52;18.71;99785.13;5055745;28;933;-40
2023/03/15 09:21:48;;;;;;;;;;;;;;;31.46;18.82;99788.78;5055805;28;1972;-41
2023/03/15 09:24:14;;;;;;;;;;;;;;;30.28;19.64;99780.88;5055786;28;1093;-40
2023/03/15 09:26:50;;;;;;;;;;;;;;;29.05;20.99;99775.78;5056099;28;1226;-37
2023/03/15 09:29:16;;;;;;;;;;;;;;;30.78;19.41;99784.38;5055798;28;1043;-41
2023/03/15 09:31:41;;;;;;;;;;;;;;;31.47;18.80;99777.69;5055822;28;1036;-41
2023/03/15 09:34:07;;;;;;;;;;;;;;;31.48;18.30;99773.88;5056516;28;1225;-39
2023/03/15 09:36:32;;;;;;;;;;;;;;;28.65;21.60;99765.19;5056317;28;1277;-39
2023/03/15 09:38:58;;;;;;;;;;;;;;;29.46;20.93;99760.00;5041565;28;1191;-41
2023/03/15 09:41:50;;;;;;;;;;;;;;;30.68;19.63;99764.03;5047443;28;1293;-38
2023/03/15 09:44:42;;;;;;;;;;;;;;;31.38;18.85;99749.19;5046283;28;1359;-39
2023/03/15 09:47:14;;;;;;;;;;;;;;;31.68;18.49;99756.38;5042453;28;1404;-40
2023/03/15 09:50:09;;;;;;;;;;;;;;;31.57;18.61;99749.91;5044329;28;1392;-37
2023/03/15 09:52:44;;;;;;;;;;;;;;;30.31;19.48;99745.97;5034985;28;1378;-39
2023/03/15 09:55:14;;;;;;;;;;;;;;;28.70;21.18;99744.56;5045000;28;1312;-40
2023/03/15 09:57:41;;;;;;;;;;;;;;;30.42;19.37;99752.50;5055377;28;1141;-40
2023/03/15 10:00:11;;;;;;;;;;;;;;;31.03;18.71;99748.91;5053845;28;1278;-38
2023/03/15 10:02:36;;;;;;;;;;;;;;;31.07;18.74;99746.56;5053527;28;1902;-37
2023/03/15 10:05:07;;;;;;;;;;;;;;;31.29;18.66;99745.97;5053916;28;1167;-39
2023/03/15 10:07:32;;;;;;;;;;;;;;;31.48;18.27;99745.91;5053534;28;1107;-38
2023/03/15 10:09:58;;;;;;;;;;;;;;;30.02;19.59;99742.13;5053859;28;1330;-40
2023/03/15 10:12:28;;;;;;;;;;;;;;;28.27;22.08;99727.09;5055480;28;1103;-37
2023/03/15 10:15:12;;;;;;;;;;;;;;;30.34;20.04;99733.00;5047459;28;1106;-38
2023/03/15 10:17:41;;;;;;;;;;;;;;;30.95;19.26;99732.97;5051927;28;1206;-38
2023/03/15 10:20:10;;;;;;;;;;;;;;;31.19;19.07;99732.16;5051288;28;1118;-38
2023/03/15 10:22:42;;;;;;;;;;;;;;;31.20;18.85;99731.09;5053128;28;1905;-39
2023/03/15 10:25:18;;;;;;;;;;;;;;;31.47;18.52;99731.47;5055984;28;1364;-39
2023/03/15 10:27:57;;;;;;;;;;;;;;;29.01;21.13;99720.41;5058108;28;1063;-36
2023/03/15 10:30:27;;;;;;;;;;;;;;;28.27;22.17;99702.75;5057363;28;1039;-40
2023/03/15 10:32:59;;;;;;;;;;;;;;;30.61;19.55;99700.91;5058709;28;1209;-39
2023/03/15 10:35:25;;;;;;;;;;;;;;;31.00;18.91;99707.81;5055228;28;1441;-35
2023/03/15 10:37:50;;;;;;;;;;;;;;;31.10;18.99;99715.38;5056054;28;1259;-36
2023/03/15 10:40:16;;;;;;;;;;;;;;;31.37;18.65;99698.59;5058764;28;1031;-37
2023/03/15 10:42:45;;;;;;;;;;;;;;;31.43;18.48;99699.59;5057259;28;1883;-38
2023/03/15 10:45:21;;;;;;;;;;;;;;;28.90;21.41;99685.91;5058162;28;1071;-39
2023/03/15 10:47:47;;;;;;;;;;;;;;;28.60;21.71;99676.56;5057608;28;1070;-38
2023/03/15 10:50:31;;;;;;;;;;;;;;;30.84;19.23;99666.72;5058043;28;1217;-38
2023/03/15 10:52:57;;;;;;;;;;;;;;;31.47;18.61;99674.41;5043754;28;1036;-37
2023/03/15 10:55:33;;;;;;;;;;;;;;;31.70;18.50;99672.69;5058213;28;1126;-38
2023/03/15 10:57:59;;;;;;;;;;;;;;;31.68;18.82;99661.22;5058036;28;1043;-40
2023/03/15 11:00:28;;;;;;;;;;;;;;;31.50;18.60;99679.34;5042584;28;1162;-34
2023/03/15 11:03:01;;;;;;;;;;;;;;;28.87;21.46;99670.09;5044186;28;1914;-36
2023/03/15 11:05:39;;;;;;;;;;;;;;;29.40;21.09;99670.66;5042634;28;1222;-39
2023/03/15 11:08:05;;;;;;;;;;;;;;;30.97;19.25;99664.84;5057672;28;971;-38
2023/03/15 11:10:32;;;;;;;;;;;;;;;31.30;18.90;99655.25;5057344;28;1072;-36
2023/03/15 11:13:19;;;;;;;;;;;;;;;31.63;18.61;99658.44;5058125;28;1042;-41
2023/03/15 11:15:52;;;;;;;;;;;;;;;31.53;18.65;99650.88;5057958;28;1226;-38
2023/03/15 11:18:18;;;;;;;;;;;;;;;31.42;18.71;99646.28;5058438;28;1209;-40
2023/03/15 11:20:44;;;;;;;;;;;;;;;28.26;21.76;99632.66;5057888;28;840;-37
2023/03/15 11:23:36;;;;;;;;;;;;;;;29.76;20.27;99635.69;5057964;28;1914;-35
2023/03/15 11:26:01;;;;;;;;;;;;;;;30.76;18.99;99643.41;5053902;28;1330;-39
2023/03/15 11:28:28;;;;;;;;;;;;;;;31.03;18.49;99639.47;5044007;28;1328;-42
2023/03/15 11:30:54;;;;;;;;;;;;;;;31.16;18.63;99636.47;5054962;28;1269;-39
2023/03/15 11:33:37;;;;;;;;;;;;;;;31.28;19.00;99633.75;5039868;28;1234;-38
2023/03/15 11:36:04;;;;;;;;;;;;;;;31.58;18.70;99633.84;5087327;28;1178;-39
2023/03/15 11:38:34;;;;;;;;;;;;;;;28.97;21.40;99627.16;5037859;28;1312;-40
2023/03/15 11:41:00;;;;;;;;;;;;;;;29.94;20.60;99624.81;5086519;28;1130;-41
2023/03/15 11:43:38;;;;;;;;;;;;;;;30.92;19.35;99628.38;5056982;28;1917;-37
2023/03/15 11:46:05;;;;;;;;;;;;;;;31.38;18.88;99619.56;5046989;28;1417;-39
2023/03/15 11:49:00;;;;;;;;;;;;;;;30.39;19.65;99611.91;5073028;28;1259;-42
2023/03/15 11:51:26;;;;;;;;;;;;;;;28.43;22.47;99604.06;5057821;28;1093;-41
2023/03/15 11:53:55;;;;;;;;;;;;;;;30.50;20.61;99602.09;5056242;28;1015;-41
2023/03/15 11:56:24;;;;;;;;;;;;;;;31.29;19.79;99601.97;5057217;28;856;-39
2023/03/15 11:59:05;;;;;;;;;;;;;;;29.52;21.26;99600.31;5057127;28;1190;-40
2023/03/15 12:01:30;;;;;;;;;;;;;;;28.54;22.80;99607.94;5057225;28;1291;-41
2023/03/15 12:04:35;;;;;;;;;;;;;;;30.50;20.95;99612.97;5055679;28;1985;-36
2023/03/15 12:07:02;;;;;;;;;;;;;;;31.18;20.04;99621.84;5034656;28;1321;-38
2023/03/15 12:09:30;;;;;;;;;;;;;;;31.52;19.38;99619.31;5034700;28;1049;-42
2023/03/15 12:11:57;;;;;;;;;;;;;;;29.46;21.58;99605.56;5045604;28;1278;-37
2023/03/15 12:14:27;;;;;;;;;;;;;;;28.59;22.67;99610.78;5055964;28;1313;-41
2023/03/15 12:16:56;;;;;;;;;;;;;;;30.45;21.00;99620.97;5057473;28;1348;-39
2023/03/15 12:19:22;;;;;;;;;;;;;;;31.22;19.80;99625.72;5055043;28;1451;-37
2023/03/15 12:21:51;;;;;;;;;;;;;;;31.47;19.69;99619.22;5055660;28;1981;-39
2023/03/15 12:24:16;;;;;;;;;;;;;;;29.37;21.68;99622.38;5050284;28;1301;-40
2023/03/15 12:26:58;;;;;;;;;;;;;;;28.32;23.05;99620.97;5050059;28;1055;-41
2023/03/15 12:29:24;;;;;;;;;;;;;;;30.58;20.72;99627.25;5049824;28;1283;-37
2023/03/15 12:32:02;;;;;;;;;;;;;;;31.16;19.92;99631.03;5051882;28;1253;-38
2023/03/15 12:34:27;;;;;;;;;;;;;;;31.53;19.32;99623.72;5053276;28;1141;-39
2023/03/15 12:36:55;;;;;;;;;;;;;;;30.23;20.70;99626.94;5056423;28;1047;-39
2023/03/15 12:39:33;;;;;;;;;;;;;;;28.48;22.67;99627.72;5043452;28;1270;-37
2023/03/15 12:41:59;;;;;;;;;;;;;;;30.18;20.94;99629.47;5055775;28;1969;-36
2023/03/15 12:44:31;;;;;;;;;;;;;;;30.92;20.08;99630.25;5055056;28;880;-39
2023/03/15 12:46:59;;;;;;;;;;;;;;;31.34;19.71;99612.97;5055902;28;1028;-37
2023/03/15 12:49:25;;;;;;;;;;;;;;;29.93;20.94;99625.03;5056076;28;1119;-39
2023/03/15 12:51:53;;;;;;;;;;;;;;;28.43;22.92;99616.75;5056195;28;1046;-38
2023/03/15 12:54:19;;;;;;;;;;;;;;;30.29;20.99;99611.63;5055880;28;1110;-37
2023/03/15 12:56:49;;;;;;;;;;;;;;;31.00;20.07;99624.47;5054783;28;1199;-40
2023/03/15 12:59:16;;;;;;;;;;;;;;;31.62;19.21;99624.97;5056250;28;1039;-40
2023/03/15 13:01:41;;;;;;;;;;;;;;;28.81;22.47;99623.13;5052024;28;1235;-35
2023/03/15 13:04:08;;;;;;;;;;;;;;;29.20;22.27;99622.97;5055812;28;1333;-40
2023/03/15 13:06:34;;;;;;;;;;;;;;;30.61;20.45;99630.34;5056559;28;1076;-39
2023/03/15 13:09:03;;;;;;;;;;;;;;;31.06;20.08;99627.28;5054461;28;1346;-33
2023/03/15 13:11:41;;;;;;;;;;;;;;;31.26;19.96;99626.91;5056525;28;924;-39
2023/03/15 13:14:15;;;;;;;;;;;;;;;31.28;19.72;99624.78;5056260;28;1185;-36